createdAt,value
2018-01-11T00:00:08.678Z,17.40
2018-01-11T00:02:36.185Z,20.30
2018-01-11T00:05:03.698Z,19.02
2018-01-11T00:07:31.381Z,15.77
2018-01-11T00:09:58.921Z,11.52
2018-01-11T00:12:26.488Z,22.42
2018-01-11T00:14:54.216Z,19.08
2018-01-11T00:17:22.357Z,18.10
2018-01-11T00:19:49.872Z,15.02
2018-01-11T00:22:17.433Z,14.05
2018-01-11T00:24:44.992Z,16.33
2018-01-11T00:27:12.495Z,13.90
2018-01-11T00:29:40.314Z,12.07
2018-01-11T00:32:07.822Z,14.10
2018-01-11T00:34:35.333Z,12.60
2018-01-11T00:37:03.179Z,17.55
2018-01-11T00:39:30.777Z,25.17
2018-01-11T00:41:58.289Z,15.18
2018-01-11T00:44:25.874Z,16.80
2018-01-11T00:46:53.442Z,10.75
2018-01-11T00:49:21.004Z,19.77
2018-01-11T00:51:48.552Z,13.82
2018-01-11T00:54:16.314Z,15.15
2018-01-11T00:56:43.885Z,11.98
2018-01-11T00:59:11.399Z,15.30
2018-01-11T01:01:38.940Z,15.85
2018-01-11T01:04:06.450Z,12.65
2018-01-11T01:06:33.957Z,42.00
2018-01-11T01:09:01.494Z,14.73
2018-01-11T01:11:29.024Z,21.50
2018-01-11T01:13:56.682Z,13.02
2018-01-11T01:16:24.186Z,9.43
2018-01-11T01:18:51.699Z,10.52
2018-01-11T01:21:19.233Z,7.32
2018-01-11T01:23:46.765Z,13.40
2018-01-11T01:26:14.505Z,9.50
2018-01-11T01:28:42.041Z,12.20
2018-01-11T01:31:09.550Z,9.43
2018-01-11T01:33:37.193Z,10.50
2018-01-11T01:36:04.697Z,9.02
2018-01-11T01:38:32.205Z,10.70
2018-01-11T01:40:59.750Z,12.05
2018-01-11T01:43:27.262Z,14.10
2018-01-11T01:45:54.778Z,14.35
2018-01-11T01:48:34.261Z,9.15
2018-01-11T01:51:01.774Z,12.48
2018-01-11T01:53:29.306Z,11.70
2018-01-11T01:55:57.148Z,11.32
2018-01-11T01:58:24.651Z,10.75
2018-01-11T02:00:52.185Z,13.90
2018-01-11T02:03:19.950Z,11.12
2018-01-11T02:05:47.515Z,15.20
2018-01-11T02:08:15.180Z,13.80
2018-01-11T02:10:42.747Z,13.82
2018-01-11T02:13:10.257Z,12.98
2018-01-11T02:15:38.159Z,11.90
2018-01-11T02:18:05.661Z,10.45
2018-01-11T02:20:33.175Z,14.32
2018-01-11T02:23:00.722Z,14.50
2018-01-11T02:25:28.253Z,11.48
2018-01-11T02:27:55.877Z,13.43
2018-01-11T02:30:23.391Z,15.43
2018-01-11T02:32:50.906Z,12.60
2018-01-11T02:35:18.446Z,12.30
2018-01-11T02:37:46.018Z,14.85
2018-01-11T02:40:13.543Z,13.05
2018-01-11T02:42:41.294Z,14.68
2018-01-11T02:45:08.801Z,13.70
2018-01-11T02:47:36.305Z,18.77
2018-01-11T02:50:04.087Z,11.95
2018-01-11T02:52:31.656Z,14.00
2018-01-11T02:54:59.205Z,13.20
2018-01-11T02:57:26.751Z,20.77
2018-01-11T02:59:54.270Z,16.10
2018-01-11T03:02:21.958Z,11.75
2018-01-11T03:04:49.543Z,10.30
2018-01-11T03:07:17.049Z,13.15
2018-01-11T03:09:44.590Z,14.35
2018-01-11T03:12:12.118Z,13.52
2018-01-11T03:14:39.997Z,12.80
2018-01-11T03:17:07.545Z,10.95
2018-01-11T03:19:35.054Z,17.17
2018-01-11T03:22:02.595Z,17.60
2018-01-11T03:24:30.119Z,16.42
2018-01-11T03:26:57.683Z,19.20
2018-01-11T03:29:25.192Z,15.48
2018-01-11T03:31:52.701Z,11.27
2018-01-11T03:34:20.235Z,11.48
2018-01-11T03:36:47.885Z,19.30
2018-01-11T03:39:15.388Z,16.08
2018-01-11T03:41:42.901Z,16.95
2018-01-11T03:44:10.436Z,17.17
2018-01-11T03:46:37.946Z,15.30
2018-01-11T03:49:05.786Z,17.87
2018-01-11T03:51:33.297Z,15.57
2018-01-11T03:54:00.802Z,18.62
2018-01-11T03:56:28.341Z,15.43
2018-01-11T03:58:55.857Z,16.70
2018-01-11T04:01:23.400Z,21.67
2018-01-11T04:03:50.910Z,17.55
2018-01-11T04:06:18.727Z,28.90
2018-01-11T04:08:46.286Z,21.15
2018-01-11T04:11:13.794Z,21.10
2018-01-11T04:13:41.335Z,17.58
2018-01-11T04:16:08.850Z,15.65
2018-01-11T04:18:36.626Z,18.65
2018-01-11T04:21:04.184Z,22.40
2018-01-11T04:23:31.757Z,13.73
2018-01-11T04:25:59.353Z,23.95
2018-01-11T04:28:26.886Z,16.90
2018-01-11T04:30:54.623Z,17.98
2018-01-11T04:33:22.190Z,22.92
2018-01-11T04:35:49.745Z,15.68
2018-01-11T04:38:17.302Z,14.32
2018-01-11T04:40:44.819Z,20.30
2018-01-11T04:43:12.625Z,19.23
2018-01-11T04:45:40.125Z,20.12
2018-01-11T04:48:07.641Z,18.62
2018-01-11T04:50:35.177Z,20.08
2018-01-11T04:53:02.686Z,19.83
2018-01-11T04:55:30.376Z,15.02
2018-01-11T04:57:57.898Z,16.77
2018-01-11T05:00:25.410Z,17.08
2018-01-11T05:02:52.946Z,16.42
2018-01-11T05:05:20.964Z,14.02
2018-01-11T05:07:48.508Z,17.50
2018-01-11T05:10:16.013Z,18.87
2018-01-11T05:12:43.557Z,29.73
2018-01-11T05:15:11.100Z,14.35
2018-01-11T05:17:38.658Z,20.48
2018-01-11T05:20:06.230Z,18.80
2018-01-11T05:22:33.776Z,19.60
2018-01-11T05:25:01.291Z,13.32
2018-01-11T05:27:28.846Z,22.92
2018-01-11T05:29:56.361Z,16.58
2018-01-11T05:32:24.118Z,32.55
2018-01-11T05:34:51.858Z,18.33
2018-01-11T05:37:19.358Z,18.30
2018-01-11T05:39:46.868Z,22.52
2018-01-11T05:42:14.538Z,13.65
2018-01-11T05:44:42.042Z,19.00
2018-01-11T05:47:09.550Z,12.37
2018-01-11T05:49:37.235Z,20.85
2018-01-11T05:52:04.739Z,12.13
2018-01-11T05:54:32.250Z,14.52
2018-01-11T05:56:59.808Z,14.50
2018-01-11T05:59:27.370Z,12.65
2018-01-11T06:01:54.934Z,14.73
2018-01-11T06:04:22.793Z,16.60
2018-01-11T06:06:50.298Z,12.70
2018-01-11T06:09:17.842Z,14.02
2018-01-11T06:11:45.692Z,26.90
2018-01-11T06:14:13.233Z,16.35
2018-01-11T06:16:40.741Z,16.58
2018-01-11T06:19:08.433Z,11.73
2018-01-11T06:21:35.938Z,15.50
2018-01-11T06:24:03.449Z,17.10
2018-01-11T06:26:30.985Z,17.20
2018-01-11T06:28:58.501Z,15.43
2018-01-11T06:31:26.250Z,14.43
2018-01-11T06:33:53.762Z,14.73
2018-01-11T06:36:21.273Z,16.37
2018-01-11T06:38:48.825Z,21.33
2018-01-11T06:41:16.385Z,13.82
2018-01-11T06:43:43.935Z,20.23
2018-01-11T06:46:11.441Z,24.25
2018-01-11T06:48:38.951Z,17.75
2018-01-11T06:51:06.498Z,17.10
2018-01-11T06:53:34.003Z,15.15
2018-01-11T06:56:01.738Z,15.15
2018-01-11T06:58:29.298Z,15.40
2018-01-11T07:00:56.857Z,16.92
2018-01-11T07:03:24.419Z,26.77
2018-01-11T07:05:51.980Z,15.23
2018-01-11T07:08:19.537Z,16.48
2018-01-11T07:10:47.056Z,21.73
2018-01-11T07:13:14.626Z,16.35
2018-01-11T07:15:42.131Z,15.63
2018-01-11T07:18:09.666Z,17.62
2018-01-11T07:20:37.239Z,16.30
2018-01-11T07:23:04.787Z,13.23
2018-01-11T07:25:32.347Z,18.85
2018-01-11T07:27:59.904Z,17.83
2018-01-11T07:30:27.473Z,16.17
2018-01-11T07:32:55.065Z,23.48
2018-01-11T07:35:22.579Z,15.57
2018-01-11T07:37:50.122Z,21.02
2018-01-11T07:40:17.657Z,19.17
2018-01-11T07:42:45.166Z,24.70
2018-01-11T07:45:13.003Z,22.13
2018-01-11T07:47:40.510Z,17.05
2018-01-11T07:50:08.030Z,19.77
2018-01-11T07:52:35.928Z,24.98
2018-01-11T07:55:03.506Z,18.25
2018-01-11T07:57:31.013Z,20.50
2018-01-11T07:59:58.787Z,31.42
2018-01-11T08:02:26.297Z,23.00
2018-01-11T08:04:53.803Z,21.87
2018-01-11T08:07:21.364Z,23.75
2018-01-11T08:09:48.882Z,17.75
2018-01-11T08:12:16.688Z,18.05
2018-01-11T08:14:44.202Z,17.23
2018-01-11T08:17:11.709Z,19.15
2018-01-11T08:19:39.260Z,16.67
2018-01-11T08:22:06.766Z,15.20
2018-01-11T08:24:35.083Z,17.92
2018-01-11T08:27:02.635Z,24.17
2018-01-11T08:29:30.142Z,17.55
2018-01-11T08:31:57.658Z,19.27
2018-01-11T08:34:25.208Z,23.55
2018-01-11T08:36:52.714Z,18.62
2018-01-11T08:39:20.225Z,18.27
2018-01-11T08:41:47.806Z,20.12
2018-01-11T08:44:15.631Z,24.25
2018-01-11T08:46:43.294Z,15.32
2018-01-11T08:49:10.905Z,16.35
2018-01-11T08:51:38.452Z,13.95
2018-01-11T08:54:06.010Z,27.80
2018-01-11T08:56:33.578Z,22.25
2018-01-11T08:59:01.094Z,14.45
2018-01-11T09:01:28.611Z,20.17
2018-01-11T09:03:56.186Z,19.60
2018-01-11T09:06:23.698Z,17.17
2018-01-11T09:08:51.211Z,14.85
2018-01-11T09:11:18.758Z,12.00
2018-01-11T09:13:46.278Z,23.52
2018-01-11T09:16:13.838Z,16.50
2018-01-11T09:18:41.397Z,19.40
2018-01-11T09:21:08.958Z,17.87
2018-01-11T09:23:37.335Z,15.75
2018-01-11T09:26:04.908Z,15.95
2018-01-11T09:28:32.454Z,13.48
2018-01-11T09:31:00.040Z,21.37
2018-01-11T09:33:27.602Z,14.98
2018-01-11T09:35:55.134Z,13.65
2018-01-11T09:38:22.690Z,20.90
2018-01-11T09:40:50.233Z,20.57
2018-01-11T09:43:17.827Z,21.33
2018-01-11T09:45:45.366Z,25.10
2018-01-11T09:48:12.929Z,24.77
2018-01-11T09:50:41.408Z,18.15
2018-01-11T09:53:08.992Z,17.95
2018-01-11T09:55:36.525Z,20.95
2018-01-11T09:58:04.085Z,19.00
2018-01-11T10:00:31.634Z,18.70
2018-01-11T10:02:59.203Z,16.00
2018-01-11T10:05:26.762Z,18.67
2018-01-11T10:07:54.329Z,18.08
2018-01-11T10:10:21.880Z,23.62
2018-01-11T10:12:49.440Z,21.17
2018-01-11T10:15:17.004Z,21.30
2018-01-11T10:17:44.966Z,17.42
2018-01-11T10:20:12.527Z,19.85
2018-01-11T10:22:40.098Z,17.00
2018-01-11T10:25:07.833Z,21.58
2018-01-11T10:27:35.412Z,20.20
2018-01-11T10:30:02.978Z,21.48
2018-01-11T10:32:30.527Z,17.20
2018-01-11T10:34:58.037Z,16.70
2018-01-11T10:37:25.953Z,14.73
2018-01-11T10:39:53.512Z,15.93
2018-01-11T10:42:21.071Z,21.03
2018-01-11T10:44:48.621Z,16.27
2018-01-11T10:47:16.139Z,17.73
2018-01-11T10:49:43.650Z,21.20
2018-01-11T10:52:11.221Z,17.10
2018-01-11T10:54:39.071Z,19.47
2018-01-11T10:57:06.581Z,17.83
2018-01-11T10:59:34.394Z,12.67
2018-01-11T11:02:07.393Z,19.83
2018-01-11T11:04:34.939Z,21.30
2018-01-11T11:07:02.497Z,21.93
2018-01-11T11:09:30.709Z,17.87
2018-01-11T11:11:58.261Z,13.37
2018-01-11T11:14:25.777Z,13.43
2018-01-11T11:16:53.281Z,15.37
2018-01-11T11:19:20.825Z,11.33
2018-01-11T11:21:48.413Z,14.23
2018-01-11T11:24:16.058Z,13.97
2018-01-11T11:26:43.775Z,11.63
2018-01-11T11:29:11.282Z,14.43
2018-01-11T11:31:38.910Z,13.97
2018-01-11T11:34:06.653Z,18.53
2018-01-11T11:36:34.172Z,15.40
2018-01-11T11:39:01.698Z,10.27
2018-01-11T11:41:30.233Z,10.87
2018-01-11T11:43:57.743Z,12.93
2018-01-11T11:46:25.288Z,11.63
2018-01-11T11:48:52.863Z,11.30
2018-01-11T11:51:20.406Z,7.60
2018-01-11T11:53:47.923Z,14.60
2018-01-11T11:56:16.447Z,9.43
2018-01-11T11:58:44.295Z,12.13
2018-01-11T12:01:11.805Z,8.80
2018-01-11T12:03:39.533Z,13.60
2018-01-11T12:06:07.050Z,9.63
2018-01-11T12:08:34.566Z,11.47
2018-01-11T12:11:02.110Z,11.37
2018-01-11T12:13:29.669Z,28.70
2018-01-11T12:15:57.215Z,16.43
2018-01-11T12:18:24.725Z,24.40
2018-01-11T12:20:52.266Z,12.37
2018-01-11T12:23:19.851Z,16.33
2018-01-11T12:25:48.198Z,16.50
2018-01-11T12:28:15.726Z,18.80
2018-01-11T12:30:43.403Z,13.00
2018-01-11T12:33:10.970Z,15.93
2018-01-11T12:35:38.522Z,19.47
2018-01-11T12:38:06.113Z,16.60
2018-01-11T12:40:33.638Z,17.23
2018-01-11T12:43:01.159Z,16.27
2018-01-11T12:45:29.167Z,20.80
2018-01-11T12:47:56.737Z,20.97
2018-01-11T12:50:24.432Z,25.83
2018-01-11T12:52:51.990Z,28.03
2018-01-11T12:55:19.614Z,21.17
2018-01-11T12:57:47.269Z,26.93
2018-01-11T13:00:14.839Z,33.60
2018-01-11T13:02:42.592Z,30.17
2018-01-11T13:05:10.154Z,19.80
2018-01-11T13:07:38.119Z,25.43
2018-01-11T13:10:05.679Z,23.50
2018-01-11T13:12:33.800Z,21.27
2018-01-11T13:15:01.514Z,37.37
2018-01-11T13:17:29.375Z,22.50
2018-01-11T13:19:56.887Z,20.73
2018-01-11T13:22:24.602Z,18.20
2018-01-11T13:24:52.263Z,19.87
2018-01-11T13:27:19.774Z,15.53
2018-01-11T13:29:47.432Z,22.52
2018-01-11T13:32:15.774Z,12.68
2018-01-11T13:34:43.360Z,17.83
2018-01-11T13:37:10.935Z,22.10
2018-01-11T13:39:38.461Z,22.75
2018-01-11T13:42:06.018Z,33.72
2018-01-11T13:44:33.546Z,22.10
2018-01-11T13:47:01.306Z,21.87
2018-01-11T13:49:28.829Z,20.75
2018-01-11T13:51:56.363Z,22.85
2018-01-11T13:54:24.201Z,23.42
2018-01-11T13:56:51.760Z,22.30
2018-01-11T13:59:19.361Z,15.85
2018-01-11T14:01:47.186Z,18.48
2018-01-11T14:04:14.745Z,29.90
2018-01-11T14:06:42.510Z,20.02
2018-01-11T14:09:10.375Z,15.10
2018-01-11T14:11:38.220Z,20.73
2018-01-11T14:14:05.742Z,13.55
2018-01-11T14:16:33.668Z,13.15
2018-01-11T14:19:01.189Z,13.88
2018-01-11T14:21:28.714Z,9.77
2018-01-11T14:23:56.754Z,12.37
2018-01-11T14:26:24.694Z,12.65
2018-01-11T14:28:52.284Z,18.83
2018-01-11T14:31:19.977Z,18.75
2018-01-11T14:33:48.425Z,17.50
2018-01-11T14:36:15.950Z,11.25
2018-01-11T14:38:43.544Z,13.02
2018-01-11T14:41:11.108Z,10.77
2018-01-11T14:43:38.617Z,18.87
2018-01-11T14:46:06.529Z,20.42
2018-01-11T14:48:34.048Z,17.62
2018-01-11T14:51:01.585Z,18.67
2018-01-11T14:53:29.153Z,22.48
2018-01-11T14:55:56.850Z,31.37
2018-01-11T14:58:24.942Z,15.35
2018-01-11T15:00:52.905Z,18.55
2018-01-11T15:03:20.449Z,18.52
2018-01-11T15:05:48.026Z,17.73
2018-01-11T15:08:15.605Z,23.98
2018-01-11T15:10:43.143Z,14.50
2018-01-11T15:13:10.867Z,16.73
2018-01-11T15:15:38.671Z,14.52
2018-01-11T15:18:06.281Z,18.27
2018-01-11T15:20:34.292Z,20.15
2018-01-11T15:23:02.475Z,21.37
2018-01-11T15:25:30.036Z,13.45
2018-01-11T15:27:57.614Z,15.07
2018-01-11T15:30:25.357Z,18.58
2018-01-11T15:32:52.959Z,18.67
2018-01-11T15:35:20.530Z,21.23
2018-01-11T15:37:48.091Z,23.55
2018-01-11T15:40:16.106Z,16.08
2018-01-11T15:42:43.683Z,31.70
2018-01-11T15:45:12.158Z,48.22
2018-01-11T15:47:39.706Z,30.92
2018-01-11T15:50:08.093Z,17.92
2018-01-11T15:52:35.921Z,18.77
2018-01-11T15:55:03.443Z,16.25
2018-01-11T15:57:31.066Z,20.52
2018-01-11T15:59:59.020Z,17.80
2018-01-11T16:02:26.537Z,21.75
2018-01-11T16:04:54.052Z,20.08
2018-01-11T16:07:21.920Z,26.62
2018-01-11T16:09:49.788Z,20.67
2018-01-11T16:12:17.368Z,23.52
2018-01-11T16:14:45.211Z,21.42
2018-01-11T16:17:12.806Z,24.17
2018-01-11T16:19:40.313Z,19.12
2018-01-11T16:22:08.604Z,19.08
2018-01-11T16:24:36.192Z,18.67
2018-01-11T16:27:03.715Z,14.68
2018-01-11T16:29:31.692Z,14.75
2018-01-11T16:31:59.199Z,19.37
2018-01-11T16:34:26.729Z,16.83
2018-01-11T16:36:54.592Z,17.67
2018-01-11T16:39:22.113Z,20.27
2018-01-11T16:41:49.631Z,22.17
2018-01-11T16:44:17.642Z,21.62
2018-01-11T16:46:45.222Z,25.65
2018-01-11T16:49:12.783Z,33.45
2018-01-11T16:51:40.653Z,29.65
2018-01-11T16:54:08.718Z,31.33
2018-01-11T16:56:37.254Z,25.33
2018-01-11T16:59:05.887Z,29.45
2018-01-11T17:01:33.561Z,36.75
2018-01-11T17:04:01.123Z,29.98
2018-01-11T17:06:28.683Z,20.35
2018-01-11T17:08:56.224Z,22.13
2018-01-11T17:11:23.885Z,31.12
2018-01-11T17:13:52.059Z,28.23
2018-01-11T17:16:19.643Z,69.95
2018-01-11T17:18:47.177Z,23.33
2018-01-11T17:21:14.736Z,26.12
2018-01-11T17:23:42.398Z,26.92
2018-01-11T17:26:10.008Z,30.20
2018-01-11T17:28:37.833Z,29.15
2018-01-11T17:31:05.389Z,29.37
2018-01-11T17:33:32.942Z,44.65
2018-01-11T17:36:00.509Z,40.53
2018-01-11T17:38:28.023Z,34.03
2018-01-11T17:40:55.722Z,35.83
2018-01-11T17:43:23.793Z,41.78
2018-01-11T17:45:51.454Z,52.13
2018-01-11T17:48:19.043Z,43.38
2018-01-11T17:50:46.613Z,45.28
2018-01-11T17:53:14.141Z,57.33
2018-01-11T17:55:41.802Z,45.03
2018-01-11T17:58:09.549Z,47.45
2018-01-11T18:00:37.071Z,64.78
2018-01-11T18:03:04.923Z,62.03
2018-01-11T18:05:33.157Z,63.87
2018-01-11T18:08:01.332Z,54.05
2018-01-11T18:10:29.234Z,58.60
2018-01-11T18:12:56.961Z,56.30
2018-01-11T18:15:24.520Z,49.15
2018-01-11T18:17:52.183Z,59.25
2018-01-11T18:20:19.844Z,47.20
2018-01-11T18:22:47.571Z,56.63
2018-01-11T18:25:15.166Z,49.90
2018-01-11T18:27:42.815Z,50.80
2018-01-11T18:30:11.231Z,57.15
2018-01-11T18:32:38.814Z,51.72
2018-01-11T18:35:06.692Z,49.92
2018-01-11T18:37:34.338Z,64.30
2018-01-11T18:40:01.874Z,78.40
2018-01-11T18:42:29.923Z,60.03
2018-01-11T18:44:57.689Z,64.45
2018-01-11T18:47:25.871Z,58.65
2018-01-11T18:49:53.829Z,57.72
2018-01-11T18:52:21.697Z,54.33
2018-01-11T18:54:49.358Z,49.55
2018-01-11T18:57:17.873Z,56.95
2018-01-11T18:59:45.601Z,48.78
2018-01-11T19:02:13.378Z,52.58
2018-01-11T19:04:41.182Z,56.10
2018-01-11T19:07:08.898Z,73.00
2018-01-11T19:09:36.760Z,55.60
2018-01-11T19:12:04.522Z,51.20
2018-01-11T19:14:32.302Z,54.05
2018-01-11T19:17:00.078Z,52.25
2018-01-11T19:19:28.339Z,55.60
2018-01-11T19:21:56.092Z,57.60
2018-01-11T19:24:23.816Z,59.58
2018-01-11T19:26:52.030Z,56.40
2018-01-11T19:29:19.641Z,58.10
2018-01-11T19:31:47.455Z,63.83
2018-01-11T19:34:15.527Z,58.67
2018-01-11T19:36:43.396Z,56.90
2018-01-11T19:39:11.160Z,60.10
2018-01-11T19:41:39.843Z,54.67
2018-01-11T19:44:07.614Z,59.15
2018-01-11T19:46:35.371Z,55.15
2018-01-11T19:49:03.356Z,62.38
2018-01-11T19:51:30.960Z,59.72
2018-01-11T19:53:58.764Z,66.35
2018-01-11T19:56:27.143Z,57.08
2018-01-11T19:58:56.564Z,62.92
2018-01-11T20:01:24.280Z,62.53
2018-01-11T20:03:52.373Z,54.50
2018-01-11T20:06:20.638Z,70.78
2018-01-11T20:08:48.467Z,68.15
2018-01-11T20:11:16.348Z,53.50
2018-01-11T20:13:44.164Z,61.47
2018-01-11T20:16:11.932Z,56.28
2018-01-11T20:18:39.996Z,58.85
2018-01-11T20:21:07.856Z,61.08
2018-01-11T20:23:36.137Z,52.67
2018-01-11T20:26:04.408Z,55.95
2018-01-11T20:28:32.241Z,54.00
2018-01-11T20:31:00.446Z,54.38
2018-01-11T20:33:28.704Z,65.35
2018-01-11T20:35:56.491Z,63.78
2018-01-11T20:38:24.206Z,51.92
2018-01-11T20:40:52.134Z,50.35
2018-01-11T20:43:19.984Z,50.30
2018-01-11T20:45:48.687Z,53.85
2018-01-11T20:48:17.884Z,51.15
2018-01-11T20:50:45.842Z,57.13
2018-01-11T20:53:14.559Z,58.65
2018-01-11T20:55:42.397Z,52.17
2018-01-11T20:58:10.254Z,48.40
2018-01-11T21:00:38.225Z,56.20
2018-01-11T21:03:06.101Z,49.08
2018-01-11T21:05:33.853Z,54.85
2018-01-11T21:08:01.738Z,58.22
2018-01-11T21:10:29.497Z,48.50
2018-01-11T21:12:57.342Z,54.38
2018-01-11T21:15:26.139Z,52.55
2018-01-11T21:17:53.922Z,52.25
2018-01-11T21:20:21.739Z,49.55
2018-01-11T21:22:50.529Z,52.62
2018-01-11T21:25:18.536Z,53.47
2018-01-11T21:27:46.308Z,49.60
2018-01-11T21:30:14.047Z,45.05
2018-01-11T21:32:41.832Z,54.40
2018-01-11T21:35:09.589Z,54.03
2018-01-11T21:37:39.086Z,42.85
2018-01-11T21:40:06.969Z,46.05
2018-01-11T21:42:36.260Z,47.25
2018-01-11T21:45:04.016Z,48.38
2018-01-11T21:47:31.785Z,53.63
2018-01-11T21:49:59.515Z,53.50
2018-01-11T21:52:27.226Z,47.53
2018-01-11T21:54:54.949Z,52.58
2018-01-11T21:57:22.462Z,46.90
2018-01-11T21:59:50.179Z,61.10
2018-01-11T22:02:18.177Z,45.50
2018-01-11T22:04:45.749Z,52.15
2018-01-11T22:07:13.266Z,43.25
2018-01-11T22:09:40.939Z,45.90
2018-01-11T22:12:08.455Z,46.72
2018-01-11T22:14:35.975Z,49.72
2018-01-11T22:17:03.705Z,59.33
2018-01-11T22:19:31.227Z,51.28
2018-01-11T22:21:58.749Z,65.40
2018-01-11T22:24:26.322Z,53.30
2018-01-11T22:26:53.923Z,53.92
2018-01-11T22:29:21.634Z,54.88
2018-01-11T22:31:49.390Z,61.63
2018-01-11T22:34:16.942Z,51.13
2018-01-11T22:36:44.505Z,51.78
2018-01-11T22:39:12.265Z,55.30
2018-01-11T22:41:39.825Z,65.03
2018-01-11T22:44:07.385Z,65.43
2018-01-11T22:46:34.942Z,61.05
2018-01-11T22:49:02.523Z,54.40
2018-01-11T22:51:30.065Z,56.58
2018-01-11T22:53:57.645Z,54.08
2018-01-11T22:56:25.162Z,53.35
2018-01-11T22:58:52.672Z,60.78
2018-01-11T23:01:20.400Z,59.15
2018-01-11T23:03:47.914Z,63.83
2018-01-11T23:06:15.425Z,60.85
2018-01-11T23:08:43.162Z,71.18
2018-01-11T23:11:10.678Z,59.33
2018-01-11T23:13:38.194Z,56.80
2018-01-11T23:16:05.937Z,66.78
2018-01-11T23:18:33.622Z,57.85
2018-01-11T23:21:01.138Z,62.20
2018-01-11T23:23:28.740Z,54.22
2018-01-11T23:25:56.298Z,53.38
2018-01-11T23:28:23.814Z,60.20
2018-01-11T23:30:51.520Z,61.50
2018-01-11T23:33:19.033Z,56.10
2018-01-11T23:35:46.550Z,61.37
2018-01-11T23:38:14.299Z,60.03
2018-01-11T23:40:42.473Z,56.05
2018-01-11T23:43:09.982Z,67.75
2018-01-11T23:45:37.590Z,50.50
2018-01-11T23:48:05.098Z,55.90
2018-01-11T23:50:32.606Z,57.38
2018-01-11T23:53:00.178Z,54.65
2018-01-11T23:55:27.726Z,52.60
2018-01-11T23:57:55.234Z,68.43
